createdAt,value
2023-03-14T00:00:43.934Z,919.2
2023-03-14T00:16:00.899Z,919.2
2023-03-14T00:31:06.604Z,921.2
2023-03-14T00:45:43.986Z,921.2
2023-03-14T01:15:46.481Z,924.2
2023-03-14T03:15:48.500Z,924.3
2023-03-14T03:30:51.207Z,923.9
2023-03-14T03:45:50.042Z,923.3
2023-03-14T04:00:52.885Z,923.3
2023-03-14T04:15:51.158Z,922.9
2023-03-14T04:30:52.282Z,922.9
2023-03-14T04:45:51.671Z,922
2023-03-14T05:00:52.952Z,921.7
2023-03-14T05:15:53.547Z,921.5
2023-03-14T05:30:54.366Z,921.6
2023-03-14T05:33:23.071Z,921.5
2023-03-14T06:03:24.499Z,919.7
2023-03-14T06:18:25.472Z,920.1
2023-03-14T06:33:25.608Z,920.3
2023-03-14T06:48:29.555Z,920.3
2023-03-14T07:03:27.014Z,918.4
2023-03-14T07:18:27.062Z,918.3
2023-03-14T07:33:30.492Z,918.3
2023-03-14T07:48:29.020Z,918.3
2023-03-14T08:03:30.555Z,917.8
2023-03-14T08:18:30.298Z,917.7
2023-03-14T08:33:31.505Z,917.1
2023-03-14T08:48:31.711Z,916.8
2023-03-14T09:03:43.345Z,916.8
2023-03-14T09:18:35.269Z,916.6
2023-03-14T09:33:33.879Z,915.9
2023-03-14T09:48:33.801Z,916.3
2023-03-14T10:03:45.211Z,916.3
2023-03-14T10:18:35.516Z,916.4
2023-03-14T10:33:35.277Z,916.5
2023-03-14T10:48:37.420Z,916.6
2023-03-14T11:03:42.607Z,916.6
2023-03-14T11:18:50.086Z,916.7
2023-03-14T11:33:40.489Z,916.9
2023-03-14T11:48:43.283Z,917.3
2023-03-14T12:03:44.309Z,917.8
2023-03-14T15:03:48.634Z,925.4
2023-03-14T15:34:04.667Z,925.4
2023-03-14T15:48:53.458Z,923.4
2023-03-14T16:03:55.814Z,923
2023-03-14T16:19:01.789Z,923
2023-03-14T16:33:55.156Z,923.3
2023-03-14T17:04:04.214Z,923.4
2023-03-14T17:19:09.115Z,923.4
2023-03-14T17:34:04.259Z,923.7
2023-03-14T18:18:22.536Z,924
2023-03-14T18:19:24.378Z,923.9
2023-03-14T20:34:33.596Z,923.9
2023-03-14T23:15:48.060Z,927
